sensor_id;sensor_type;location;lat;lon;timestamp;pressure;altitude;pressure_sealevel;temperature;humidity
38630;BME280;24384;51.988;4.644;2023-03-15T00:00:03;101281.53;;;3.27;83.90
38630;BME280;24384;51.988;4.644;2023-03-15T00:02:30;101281.56;;;3.33;83.70
38630;BME280;24384;51.988;4.644;2023-03-15T00:04:55;101291.09;;;3.23;84.29
38630;BME280;24384;51.988;4.644;2023-03-15T00:07:20;101293.63;;;3.11;85.73
38630;BME280;24384;51.988;4.644;2023-03-15T00:09:50;101281.53;;;3.25;85.32
38630;BME280;24384;51.988;4.644;2023-03-15T00:12:17;101280.63;;;3.12;86.02
38630;BME280;24384;51.988;4.644;2023-03-15T00:14:42;101278.03;;;3.17;85.18
38630;BME280;24384;51.988;4.644;2023-03-15T00:17:07;101286.72;;;3.17;85.85
38630;BME280;24384;51.988;4.644;2023-03-15T00:19:33;101289.25;;;3.03;85.25
38630;BME280;24384;51.988;4.644;2023-03-15T00:21:58;101292.72;;;3.05;84.93
38630;BME280;24384;51.988;4.644;2023-03-15T00:24:23;101294.34;;;2.83;85.59
38630;BME280;24384;51.988;4.644;2023-03-15T00:26:48;101304.81;;;2.90;86.17
38630;BME280;24384;51.988;4.644;2023-03-15T00:29:14;101297.06;;;3.03;85.74
38630;BME280;24384;51.988;4.644;2023-03-15T00:31:39;101316.19;;;3.09;85.85
38630;BME280;24384;51.988;4.644;2023-03-15T00:34:22;101311.91;;;3.12;85.89
38630;BME280;24384;51.988;4.644;2023-03-15T00:37:10;101318.00;;;3.17;85.62
38630;BME280;24384;51.988;4.644;2023-03-15T00:39:51;101317.91;;;3.03;84.71
38630;BME280;24384;51.988;4.644;2023-03-15T00:42:22;101326.56;;;2.96;85.94
38630;BME280;24384;51.988;4.644;2023-03-15T00:45:01;101324.00;;;3.04;85.41
38630;BME280;24384;51.988;4.644;2023-03-15T00:47:34;101337.00;;;3.01;85.51
38630;BME280;24384;51.988;4.644;2023-03-15T00:50:02;101330.09;;;3.06;87.11
38630;BME280;24384;51.988;4.644;2023-03-15T00:52:34;101334.44;;;3.10;86.97
38630;BME280;24384;51.988;4.644;2023-03-15T00:55:02;101329.13;;;2.92;86.29
38630;BME280;24384;51.988;4.644;2023-03-15T00:57:27;101335.31;;;3.03;87.03
38630;BME280;24384;51.988;4.644;2023-03-15T00:59:53;101340.56;;;3.14;86.23
38630;BME280;24384;51.988;4.644;2023-03-15T01:02:20;101334.47;;;3.13;86.29
38630;BME280;24384;51.988;4.644;2023-03-15T01:04:46;101331.00;;;3.13;86.24
38630;BME280;24384;51.988;4.644;2023-03-15T01:07:12;101337.88;;;3.00;85.34
38630;BME280;24384;51.988;4.644;2023-03-15T01:09:37;101339.63;;;3.04;85.69
38630;BME280;24384;51.988;4.644;2023-03-15T01:12:02;101340.53;;;3.04;86.51
38630;BME280;24384;51.988;4.644;2023-03-15T01:14:28;101345.66;;;2.92;86.37
38630;BME280;24384;51.988;4.644;2023-03-15T01:16:53;101346.63;;;3.13;85.26
38630;BME280;24384;51.988;4.644;2023-03-15T01:19:21;101340.50;;;3.03;85.56
38630;BME280;24384;51.988;4.644;2023-03-15T01:21:46;101342.19;;;2.96;86.10
38630;BME280;24384;51.988;4.644;2023-03-15T01:24:12;101363.78;;;2.75;86.14
38630;BME280;24384;51.988;4.644;2023-03-15T01:26:38;101364.59;;;2.69;85.98
38630;BME280;24384;51.988;4.644;2023-03-15T01:29:03;101374.16;;;2.72;86.23
38630;BME280;24384;51.988;4.644;2023-03-15T01:31:29;101377.72;;;2.85;85.77
38630;BME280;24384;51.988;4.644;2023-03-15T01:33:55;101375.06;;;2.77;84.80
38630;BME280;24384;51.988;4.644;2023-03-15T01:36:21;101381.06;;;2.68;85.59
38630;BME280;24384;51.988;4.644;2023-03-15T01:38:46;101387.16;;;2.66;86.59
38630;BME280;24384;51.988;4.644;2023-03-15T01:41:14;101385.41;;;2.68;86.54
38630;BME280;24384;51.988;4.644;2023-03-15T01:43:41;101388.91;;;2.72;86.26
38630;BME280;24384;51.988;4.644;2023-03-15T01:48:59;101391.47;;;2.68;85.66
38630;BME280;24384;51.988;4.644;2023-03-15T01:51:27;101402.53;;;2.41;87.21
38630;BME280;24384;51.988;4.644;2023-03-15T01:53:59;101410.31;;;2.38;87.34
38630;BME280;24384;51.988;4.644;2023-03-15T01:56:26;101415.44;;;2.29;88.45
38630;BME280;24384;51.988;4.644;2023-03-15T01:58:53;101416.41;;;2.39;87.96
38630;BME280;24384;51.988;4.644;2023-03-15T02:01:19;101413.75;;;2.34;88.36
38630;BME280;24384;51.988;4.644;2023-03-15T02:03:45;101420.72;;;2.35;88.67
38630;BME280;24384;51.988;4.644;2023-03-15T02:06:18;101409.63;;;2.59;87.28
38630;BME280;24384;51.988;4.644;2023-03-15T02:08:45;101412.84;;;2.30;89.10
38630;BME280;24384;51.988;4.644;2023-03-15T02:11:13;101416.19;;;2.17;89.99
38630;BME280;24384;51.988;4.644;2023-03-15T02:13:40;101411.78;;;2.14;89.75
38630;BME280;24384;51.988;4.644;2023-03-15T02:16:05;101415.28;;;2.13;89.55
38630;BME280;24384;51.988;4.644;2023-03-15T02:18:31;101412.75;;;2.20;89.41
38630;BME280;24384;51.988;4.644;2023-03-15T02:23:44;101429.50;;;2.46;89.11
38630;BME280;24384;51.988;4.644;2023-03-15T02:28:38;101439.78;;;2.34;88.26
38630;BME280;24384;51.988;4.644;2023-03-15T02:31:03;101437.16;;;2.32;89.15
38630;BME280;24384;51.988;4.644;2023-03-15T02:33:29;101435.44;;;2.36;89.05
38630;BME280;24384;51.988;4.644;2023-03-15T02:36:31;101443.19;;;2.28;88.61
38630;BME280;24384;51.988;4.644;2023-03-15T02:38:50;101449.44;;;2.44;88.43
38630;BME280;24384;51.988;4.644;2023-03-15T02:41:37;101449.63;;;2.63;87.55
38630;BME280;24384;51.988;4.644;2023-03-15T02:44:12;101452.22;;;2.63;88.00
38630;BME280;24384;51.988;4.644;2023-03-15T02:46:41;101452.91;;;2.45;87.43
38630;BME280;24384;51.988;4.644;2023-03-15T02:49:06;101445.13;;;2.49;87.93
38630;BME280;24384;51.988;4.644;2023-03-15T02:51:32;101455.59;;;2.53;88.82
38630;BME280;24384;51.988;4.644;2023-03-15T02:53:58;101459.00;;;2.47;88.59
38630;BME280;24384;51.988;4.644;2023-03-15T02:56:23;101460.81;;;2.54;88.88
38630;BME280;24384;51.988;4.644;2023-03-15T02:58:49;101462.59;;;2.57;88.18
38630;BME280;24384;51.988;4.644;2023-03-15T03:01:14;101475.63;;;2.58;87.54
38630;BME280;24384;51.988;4.644;2023-03-15T03:03:41;101480.72;;;2.49;88.38
38630;BME280;24384;51.988;4.644;2023-03-15T03:06:07;101486.00;;;2.54;87.58
38630;BME280;24384;51.988;4.644;2023-03-15T03:08:32;101484.94;;;2.39;86.85
38630;BME280;24384;51.988;4.644;2023-03-15T03:10:58;101501.22;;;2.18;88.51
38630;BME280;24384;51.988;4.644;2023-03-15T03:13:23;101507.22;;;2.12;88.35
38630;BME280;24384;51.988;4.644;2023-03-15T03:15:49;101508.81;;;2.01;88.67
38630;BME280;24384;51.988;4.644;2023-03-15T03:18:22;101506.25;;;2.04;89.00
38630;BME280;24384;51.988;4.644;2023-03-15T03:20:48;101513.09;;;1.99;89.50
38630;BME280;24384;51.988;4.644;2023-03-15T03:23:13;101515.78;;;2.05;89.07
38630;BME280;24384;51.988;4.644;2023-03-15T03:25:38;101509.72;;;2.06;89.08
38630;BME280;24384;51.988;4.644;2023-03-15T03:28:11;101516.88;;;2.21;88.50
38630;BME280;24384;51.988;4.644;2023-03-15T03:30:36;101520.41;;;2.28;88.06
38630;BME280;24384;51.988;4.644;2023-03-15T03:33:02;101524.94;;;2.43;88.77
38630;BME280;24384;51.988;4.644;2023-03-15T03:35:27;101532.72;;;2.40;87.88
38630;BME280;24384;51.988;4.644;2023-03-15T03:37:52;101536.34;;;2.56;87.93
38630;BME280;24384;51.988;4.644;2023-03-15T03:40:18;101546.72;;;2.51;87.67
38630;BME280;24384;51.988;4.644;2023-03-15T03:42:43;101549.19;;;2.40;88.13
38630;BME280;24384;51.988;4.644;2023-03-15T03:45:08;101556.91;;;2.32;88.04
38630;BME280;24384;51.988;4.644;2023-03-15T03:47:34;101558.22;;;2.00;86.47
38630;BME280;24384;51.988;4.644;2023-03-15T03:49:59;101557.88;;;1.75;87.38
38630;BME280;24384;51.988;4.644;2023-03-15T03:52:24;101563.63;;;1.55;88.70
38630;BME280;24384;51.988;4.644;2023-03-15T03:54:50;101559.25;;;1.53;88.59
38630;BME280;24384;51.988;4.644;2023-03-15T03:57:15;101562.66;;;1.47;89.14
38630;BME280;24384;51.988;4.644;2023-03-15T03:59:40;101566.81;;;1.39;90.37
38630;BME280;24384;51.988;4.644;2023-03-15T04:02:06;101581.75;;;1.49;89.66
38630;BME280;24384;51.988;4.644;2023-03-15T04:04:31;101573.09;;;1.50;89.55
38630;BME280;24384;51.988;4.644;2023-03-15T04:06:56;101575.88;;;1.61;88.98
38630;BME280;24384;51.988;4.644;2023-03-15T04:09:21;101584.84;;;1.82;89.45
38630;BME280;24384;51.988;4.644;2023-03-15T04:11:49;101592.59;;;1.78;89.58
38630;BME280;24384;51.988;4.644;2023-03-15T04:14:14;101585.69;;;1.82;88.94
38630;BME280;24384;51.988;4.644;2023-03-15T04:16:39;101592.78;;;1.91;88.71
38630;BME280;24384;51.988;4.644;2023-03-15T04:19:05;101593.44;;;1.77;88.41
38630;BME280;24384;51.988;4.644;2023-03-15T04:21:31;101604.53;;;1.66;88.69
38630;BME280;24384;51.988;4.644;2023-03-15T04:23:57;101602.13;;;1.78;88.86
38630;BME280;24384;51.988;4.644;2023-03-15T04:26:22;101602.22;;;1.84;89.14
38630;BME280;24384;51.988;4.644;2023-03-15T04:28:54;101604.81;;;1.84;89.69
38630;BME280;24384;51.988;4.644;2023-03-15T04:31:20;101604.84;;;1.86;90.07
38630;BME280;24384;51.988;4.644;2023-03-15T04:33:46;101606.66;;;1.93;89.77
38630;BME280;24384;51.988;4.644;2023-03-15T04:36:13;101612.78;;;1.95;89.28
38630;BME280;24384;51.988;4.644;2023-03-15T04:38:46;101618.09;;;2.01;89.32
38630;BME280;24384;51.988;4.644;2023-03-15T04:41:12;101625.00;;;2.01;89.94
38630;BME280;24384;51.988;4.644;2023-03-15T04:43:40;101626.91;;;2.12;89.63
38630;BME280;24384;51.988;4.644;2023-03-15T04:46:05;101637.47;;;2.22;89.72
38630;BME280;24384;51.988;4.644;2023-03-15T04:48:33;101631.59;;;2.37;88.55
38630;BME280;24384;51.988;4.644;2023-03-15T04:50:59;101632.50;;;2.40;88.40
38630;BME280;24384;51.988;4.644;2023-03-15T04:53:24;101636.06;;;2.48;86.38
38630;BME280;24384;51.988;4.644;2023-03-15T04:55:52;101640.34;;;2.42;86.72
38630;BME280;24384;51.988;4.644;2023-03-15T04:58:18;101645.63;;;2.48;86.31
38630;BME280;24384;51.988;4.644;2023-03-15T05:00:43;101645.50;;;2.39;86.32
38630;BME280;24384;51.988;4.644;2023-03-15T05:03:10;101642.59;;;2.17;87.01
38630;BME280;24384;51.988;4.644;2023-03-15T05:05:36;101645.22;;;2.19;87.17
38630;BME280;24384;51.988;4.644;2023-03-15T05:08:01;101650.31;;;2.11;87.57
38630;BME280;24384;51.988;4.644;2023-03-15T05:10:26;101648.69;;;2.19;87.16
38630;BME280;24384;51.988;4.644;2023-03-15T05:12:54;101654.78;;;2.20;86.82
38630;BME280;24384;51.988;4.644;2023-03-15T05:15:19;101655.63;;;2.19;87.53
38630;BME280;24384;51.988;4.644;2023-03-15T05:17:44;101658.19;;;2.15;88.28
38630;BME280;24384;51.988;4.644;2023-03-15T05:20:10;101664.41;;;2.27;87.69
38630;BME280;24384;51.988;4.644;2023-03-15T05:22:36;101663.44;;;2.19;89.20
38630;BME280;24384;51.988;4.644;2023-03-15T05:25:02;101674.81;;;2.27;89.39
38630;BME280;24384;51.988;4.644;2023-03-15T05:27:27;101670.06;;;2.59;87.34
38630;BME280;24384;51.988;4.644;2023-03-15T05:29:53;101669.91;;;2.48;86.41
38630;BME280;24384;51.988;4.644;2023-03-15T05:32:18;101674.41;;;2.59;86.53
38630;BME280;24384;51.988;4.644;2023-03-15T05:34:43;101674.38;;;2.56;86.82
38630;BME280;24384;51.988;4.644;2023-03-15T05:37:09;101677.66;;;2.42;87.13
38630;BME280;24384;51.988;4.644;2023-03-15T05:39:34;101680.34;;;2.48;87.82
38630;BME280;24384;51.988;4.644;2023-03-15T05:41:59;101676.09;;;2.54;87.94
38630;BME280;24384;51.988;4.644;2023-03-15T05:44:25;101682.16;;;2.54;87.56
38630;BME280;24384;51.988;4.644;2023-03-15T05:46:53;101685.63;;;2.55;87.18
38630;BME280;24384;51.988;4.644;2023-03-15T05:49:19;101689.13;;;2.55;87.05
38630;BME280;24384;51.988;4.644;2023-03-15T05:51:44;101696.88;;;2.50;87.01
38630;BME280;24384;51.988;4.644;2023-03-15T05:54:10;101698.78;;;2.64;86.32
38630;BME280;24384;51.988;4.644;2023-03-15T05:56:35;101699.56;;;2.57;86.25
38630;BME280;24384;51.988;4.644;2023-03-15T05:59:00;101707.91;;;2.34;86.78
38630;BME280;24384;51.988;4.644;2023-03-15T06:01:27;101712.41;;;2.44;86.34
38630;BME280;24384;51.988;4.644;2023-03-15T06:03:52;101707.91;;;2.34;87.11
38630;BME280;24384;51.988;4.644;2023-03-15T06:06:17;101725.22;;;2.30;87.09
38630;BME280;24384;51.988;4.644;2023-03-15T06:08:42;101734.66;;;2.24;87.43
38630;BME280;24384;51.988;4.644;2023-03-15T06:11:08;101744.22;;;2.25;87.53
38630;BME280;24384;51.988;4.644;2023-03-15T06:13:35;101754.44;;;2.12;87.58
38630;BME280;24384;51.988;4.644;2023-03-15T06:16:01;101752.75;;;2.16;88.38
38630;BME280;24384;51.988;4.644;2023-03-15T06:18:26;101757.28;;;2.28;87.68
38630;BME280;24384;51.988;4.644;2023-03-15T06:20:51;101760.06;;;2.39;85.60
38630;BME280;24384;51.988;4.644;2023-03-15T06:23:16;101761.88;;;2.43;84.91
38630;BME280;24384;51.988;4.644;2023-03-15T06:25:42;101765.31;;;2.42;85.23
38630;BME280;24384;51.988;4.644;2023-03-15T06:28:07;101776.34;;;2.27;86.13
38630;BME280;24384;51.988;4.644;2023-03-15T06:30:33;101781.56;;;2.27;86.35
38630;BME280;24384;51.988;4.644;2023-03-15T06:32:59;101780.81;;;2.34;86.40
38630;BME280;24384;51.988;4.644;2023-03-15T06:35:25;101784.34;;;2.39;86.11
38630;BME280;24384;51.988;4.644;2023-03-15T06:37:50;101782.59;;;2.37;86.69
38630;BME280;24384;51.988;4.644;2023-03-15T06:40:17;101789.63;;;2.42;86.93
38630;BME280;24384;51.988;4.644;2023-03-15T06:42:42;101792.34;;;2.51;86.86
38630;BME280;24384;51.988;4.644;2023-03-15T06:45:10;101792.44;;;2.56;87.47
38630;BME280;24384;51.988;4.644;2023-03-15T06:47:39;101797.81;;;2.67;86.51
38630;BME280;24384;51.988;4.644;2023-03-15T06:50:07;101796.88;;;2.63;86.73
38630;BME280;24384;51.988;4.644;2023-03-15T06:52:32;101803.25;;;2.84;85.20
38630;BME280;24384;51.988;4.644;2023-03-15T06:54:57;101806.94;;;2.97;85.11
38630;BME280;24384;51.988;4.644;2023-03-15T06:57:23;101806.91;;;2.95;85.18
38630;BME280;24384;51.988;4.644;2023-03-15T06:59:48;101824.19;;;2.90;84.80
38630;BME280;24384;51.988;4.644;2023-03-15T07:02:14;101826.75;;;2.87;85.30
38630;BME280;24384;51.988;4.644;2023-03-15T07:04:40;101823.47;;;2.99;84.97
38630;BME280;24384;51.988;4.644;2023-03-15T07:07:05;101827.88;;;3.03;84.41
38630;BME280;24384;51.988;4.644;2023-03-15T07:09:31;101839.38;;;3.19;84.44
38630;BME280;24384;51.988;4.644;2023-03-15T07:11:56;101833.59;;;3.43;83.80
38630;BME280;24384;51.988;4.644;2023-03-15T07:14:21;101841.34;;;3.37;84.70
38630;BME280;24384;51.988;4.644;2023-03-15T07:16:50;101840.00;;;3.71;84.08
38630;BME280;24384;51.988;4.644;2023-03-15T07:19:15;101842.78;;;3.87;83.31
38630;BME280;24384;51.988;4.644;2023-03-15T07:21:40;101843.66;;;3.87;82.54
38630;BME280;24384;51.988;4.644;2023-03-15T07:24:08;101836.75;;;3.91;81.78
38630;BME280;24384;51.988;4.644;2023-03-15T07:26:36;101845.47;;;3.94;80.69
38630;BME280;24384;51.988;4.644;2023-03-15T07:29:01;101848.16;;;4.02;80.76
38630;BME280;24384;51.988;4.644;2023-03-15T07:31:29;101856.13;;;4.16;80.63
38630;BME280;24384;51.988;4.644;2023-03-15T07:33:54;101861.41;;;4.21;79.71
38630;BME280;24384;51.988;4.644;2023-03-15T07:36:22;101853.69;;;4.32;78.64
38630;BME280;24384;51.988;4.644;2023-03-15T07:38:47;101854.66;;;4.46;78.49
38630;BME280;24384;51.988;4.644;2023-03-15T07:41:13;101855.66;;;4.57;78.03
38630;BME280;24384;51.988;4.644;2023-03-15T07:43:38;101861.59;;;4.42;77.75
38630;BME280;24384;51.988;4.644;2023-03-15T07:46:03;101863.97;;;4.16;77.48
38630;BME280;24384;51.988;4.644;2023-03-15T07:48:29;101872.00;;;4.36;76.85
38630;BME280;24384;51.988;4.644;2023-03-15T07:50:55;101883.22;;;4.27;76.91
38630;BME280;24384;51.988;4.644;2023-03-15T07:53:20;101884.19;;;4.36;76.56
38630;BME280;24384;51.988;4.644;2023-03-15T07:55:46;101883.56;;;4.64;75.93
38630;BME280;24384;51.988;4.644;2023-03-15T07:58:12;101892.16;;;4.51;76.29
38630;BME280;24384;51.988;4.644;2023-03-15T08:00:39;101890.59;;;4.72;76.92
38630;BME280;24384;51.988;4.644;2023-03-15T08:03:04;101889.56;;;4.53;77.66
38630;BME280;24384;51.988;4.644;2023-03-15T08:05:31;101899.41;;;4.86;77.13
38630;BME280;24384;51.988;4.644;2023-03-15T08:07:57;101898.66;;;5.02;75.96
38630;BME280;24384;51.988;4.644;2023-03-15T08:10:22;101903.03;;;5.02;76.33
38630;BME280;24384;51.988;4.644;2023-03-15T08:12:47;101901.41;;;5.24;76.13
38630;BME280;24384;51.988;4.644;2023-03-15T08:15:13;101911.84;;;5.18;75.56
38630;BME280;24384;51.988;4.644;2023-03-15T08:17:39;101923.28;;;5.38;73.54
38630;BME280;24384;51.988;4.644;2023-03-15T08:20:05;101917.22;;;5.44;73.21
38630;BME280;24384;51.988;4.644;2023-03-15T08:22:33;101919.13;;;5.84;73.08
38630;BME280;24384;51.988;4.644;2023-03-15T08:24:58;101917.38;;;5.80;72.05
38630;BME280;24384;51.988;4.644;2023-03-15T08:27:23;101922.72;;;5.98;72.22
38630;BME280;24384;51.988;4.644;2023-03-15T08:29:49;101921.00;;;6.13;71.48
38630;BME280;24384;51.988;4.644;2023-03-15T08:32:16;101925.41;;;6.18;69.81
38630;BME280;24384;51.988;4.644;2023-03-15T08:34:41;101934.09;;;6.13;70.08
38630;BME280;24384;51.988;4.644;2023-03-15T08:37:08;101927.19;;;6.50;69.48
38630;BME280;24384;51.988;4.644;2023-03-15T08:39:34;101932.41;;;6.44;69.63
38630;BME280;24384;51.988;4.644;2023-03-15T08:42:00;101926.34;;;6.65;66.47
38630;BME280;24384;51.988;4.644;2023-03-15T08:44:25;101928.97;;;6.88;65.71
38630;BME280;24384;51.988;4.644;2023-03-15T08:46:50;101926.34;;;6.99;65.34
38630;BME280;24384;51.988;4.644;2023-03-15T08:49:16;101930.69;;;7.23;65.08
38630;BME280;24384;51.988;4.644;2023-03-15T08:51:42;101923.66;;;7.36;63.15
38630;BME280;24384;51.988;4.644;2023-03-15T08:54:07;101918.34;;;7.56;63.75
38630;BME280;24384;51.988;4.644;2023-03-15T08:56:32;101921.84;;;7.58;60.74
38630;BME280;24384;51.988;4.644;2023-03-15T08:58:58;101925.31;;;7.66;62.11
38630;BME280;24384;51.988;4.644;2023-03-15T09:01:23;101925.31;;;7.69;59.98
38630;BME280;24384;51.988;4.644;2023-03-15T09:03:48;101933.16;;;7.77;61.61
38630;BME280;24384;51.988;4.644;2023-03-15T09:06:15;101931.47;;;7.61;61.92
38630;BME280;24384;51.988;4.644;2023-03-15T09:08:40;101930.56;;;7.71;62.27
38630;BME280;24384;51.988;4.644;2023-03-15T09:11:06;101925.25;;;7.83;61.86
38630;BME280;24384;51.988;4.644;2023-03-15T09:13:34;101920.81;;;7.93;60.28
38630;BME280;24384;51.988;4.644;2023-03-15T09:16:06;101921.78;;;7.69;59.35
38630;BME280;24384;51.988;4.644;2023-03-15T09:18:32;101915.56;;;7.93;57.95
38630;BME280;24384;51.988;4.644;2023-03-15T09:20:58;101918.81;;;8.37;56.89
38630;BME280;24384;51.988;4.644;2023-03-15T09:23:23;101909.28;;;8.23;58.61
38630;BME280;24384;51.988;4.644;2023-03-15T09:25:48;101910.91;;;8.41;61.09
38630;BME280;24384;51.988;4.644;2023-03-15T09:28:16;101912.78;;;8.21;63.52
38630;BME280;24384;51.988;4.644;2023-03-15T09:30:54;101921.41;;;8.41;60.80
38630;BME280;24384;51.988;4.644;2023-03-15T09:33:40;101927.50;;;8.54;57.26
38630;BME280;24384;51.988;4.644;2023-03-15T09:36:26;101925.66;;;8.67;57.47
38630;BME280;24384;51.988;4.644;2023-03-15T09:39:12;101935.34;;;8.64;56.56
38630;BME280;24384;51.988;4.644;2023-03-15T09:41:54;101935.25;;;8.76;54.20
38630;BME280;24384;51.988;4.644;2023-03-15T09:44:47;101934.44;;;8.62;54.01
38630;BME280;24384;51.988;4.644;2023-03-15T09:50:12;101938.28;;;9.27;52.11
38630;BME280;24384;51.988;4.644;2023-03-15T09:52:43;101938.81;;;9.57;48.35
38630;BME280;24384;51.988;4.644;2023-03-15T09:55:24;101926.28;;;9.81;48.96
38630;BME280;24384;51.988;4.644;2023-03-15T10:00:19;101932.53;;;10.37;48.46
38630;BME280;24384;51.988;4.644;2023-03-15T10:02:57;101921.75;;;10.53;49.15
38630;BME280;24384;51.988;4.644;2023-03-15T10:05:40;101930.91;;;10.86;46.46
38630;BME280;24384;51.988;4.644;2023-03-15T10:08:16;101947.81;;;10.14;44.04
38630;BME280;24384;51.988;4.644;2023-03-15T10:11:28;101936.38;;;10.74;44.61
38630;BME280;24384;51.988;4.644;2023-03-15T10:21:12;101939.78;;;10.81;38.82
38630;BME280;24384;51.988;4.644;2023-03-15T10:23:51;101945.09;;;11.29;39.40
38630;BME280;24384;51.988;4.644;2023-03-15T10:26:18;101951.91;;;11.86;40.60
38630;BME280;24384;51.988;4.644;2023-03-15T10:28:45;101950.78;;;11.56;39.32
38630;BME280;24384;51.988;4.644;2023-03-15T10:31:15;101953.50;;;11.96;40.12
38630;BME280;24384;51.988;4.644;2023-03-15T10:33:41;101960.66;;;11.91;38.60
38630;BME280;24384;51.988;4.644;2023-03-15T10:36:18;101966.38;;;11.70;40.86
38630;BME280;24384;51.988;4.644;2023-03-15T10:38:44;101965.78;;;11.05;40.75
38630;BME280;24384;51.988;4.644;2023-03-15T10:41:10;101978.94;;;10.52;44.10
38630;BME280;24384;51.988;4.644;2023-03-15T10:43:36;101969.81;;;10.72;40.17
38630;BME280;24384;51.988;4.644;2023-03-15T10:48:36;101982.13;;;11.26;40.09
38630;BME280;24384;51.988;4.644;2023-03-15T10:51:06;101978.50;;;11.33;37.90
38630;BME280;24384;51.988;4.644;2023-03-15T10:53:46;101980.44;;;11.70;38.55
38630;BME280;24384;51.988;4.644;2023-03-15T10:56:19;101988.50;;;11.64;41.15
38630;BME280;24384;51.988;4.644;2023-03-15T10:58:46;101987.28;;;12.24;42.82
38630;BME280;24384;51.988;4.644;2023-03-15T11:01:13;101979.94;;;12.37;37.37
38630;BME280;24384;51.988;4.644;2023-03-15T11:03:47;101979.84;;;13.15;38.71
38630;BME280;24384;51.988;4.644;2023-03-15T11:06:25;101987.00;;;12.76;37.54
38630;BME280;24384;51.988;4.644;2023-03-15T11:08:52;101988.50;;;12.87;37.99
38630;BME280;24384;51.988;4.644;2023-03-15T11:11:18;101999.16;;;12.84;40.54
38630;BME280;24384;51.988;4.644;2023-03-15T11:13:54;102004.22;;;12.58;38.02
38630;BME280;24384;51.988;4.644;2023-03-15T11:16:22;101994.38;;;12.99;36.92
38630;BME280;24384;51.988;4.644;2023-03-15T11:18:50;102004.34;;;12.89;35.51
38630;BME280;24384;51.988;4.644;2023-03-15T11:21:18;101998.78;;;12.64;36.96
38630;BME280;24384;51.988;4.644;2023-03-15T11:23:48;101997.47;;;13.52;33.96
38630;BME280;24384;51.988;4.644;2023-03-15T11:26:21;101989.72;;;14.09;33.79
38630;BME280;24384;51.988;4.644;2023-03-15T11:28:57;101997.06;;;13.68;35.36
38630;BME280;24384;51.988;4.644;2023-03-15T11:31:25;101986.00;;;13.52;36.53
38630;BME280;24384;51.988;4.644;2023-03-15T11:33:51;102008.03;;;13.85;33.10
38630;BME280;24384;51.988;4.644;2023-03-15T11:36:19;101994.22;;;14.05;36.87
38630;BME280;24384;51.988;4.644;2023-03-15T11:38:45;101985.19;;;15.24;32.16
38630;BME280;24384;51.988;4.644;2023-03-15T11:41:54;101980.13;;;16.16;31.45
38630;BME280;24384;51.988;4.644;2023-03-15T11:46:56;101977.63;;;17.42;26.78
38630;BME280;24384;51.988;4.644;2023-03-15T11:51:57;101968.00;;;19.62;27.32
38630;BME280;24384;51.988;4.644;2023-03-15T11:54:24;101974.50;;;17.74;25.67
38630;BME280;24384;51.988;4.644;2023-03-15T11:57:04;101965.50;;;19.41;24.80
38630;BME280;24384;51.988;4.644;2023-03-15T11:59:36;101966.16;;;20.45;21.75
38630;BME280;24384;51.988;4.644;2023-03-15T12:02:34;101966.94;;;20.93;23.78
38630;BME280;24384;51.988;4.644;2023-03-15T12:05:39;101967.47;;;22.03;21.55
38630;BME280;24384;51.988;4.644;2023-03-15T12:10:41;101979.31;;;20.96;24.05
38630;BME280;24384;51.988;4.644;2023-03-15T12:13:16;101974.84;;;20.01;25.45
38630;BME280;24384;51.988;4.644;2023-03-15T12:15:42;101966.84;;;20.33;22.50
38630;BME280;24384;51.988;4.644;2023-03-15T12:18:12;101969.03;;;21.63;22.45
38630;BME280;24384;51.988;4.644;2023-03-15T12:20:41;101977.38;;;20.84;23.92
38630;BME280;24384;51.988;4.644;2023-03-15T12:28:36;101963.28;;;21.25;21.70
38630;BME280;24384;51.988;4.644;2023-03-15T12:31:05;101959.81;;;23.33;19.09
38630;BME280;24384;51.988;4.644;2023-03-15T12:33:33;101963.91;;;21.00;20.83
38630;BME280;24384;51.988;4.644;2023-03-15T12:36:08;101970.63;;;20.29;21.00
38630;BME280;24384;51.988;4.644;2023-03-15T12:38:35;101975.34;;;20.08;21.06
38630;BME280;24384;51.988;4.644;2023-03-15T12:41:01;101961.63;;;23.32;19.32
38630;BME280;24384;51.988;4.644;2023-03-15T12:43:43;101978.13;;;22.60;20.39
38630;BME280;24384;51.988;4.644;2023-03-15T12:51:53;101958.53;;;21.44;20.94
38630;BME280;24384;51.988;4.644;2023-03-15T12:54:19;101953.94;;;22.04;19.93
38630;BME280;24384;51.988;4.644;2023-03-15T12:56:47;101964.22;;;21.54;21.59
38630;BME280;24384;51.988;4.644;2023-03-15T13:01:43;101968.78;;;18.02;24.39
38630;BME280;24384;51.988;4.644;2023-03-15T13:04:09;101955.28;;;18.43;22.76
38630;BME280;24384;51.988;4.644;2023-03-15T13:14:35;101947.66;;;19.24;24.37
38630;BME280;24384;51.988;4.644;2023-03-15T13:17:11;101948.66;;;18.14;25.33
38630;BME280;24384;51.988;4.644;2023-03-15T13:19:45;101942.69;;;18.45;24.10
38630;BME280;24384;51.988;4.644;2023-03-15T13:22:21;101954.28;;;17.68;26.55
38630;BME280;24384;51.988;4.644;2023-03-15T13:25:13;101959.13;;;17.79;24.30
38630;BME280;24384;51.988;4.644;2023-03-15T13:30:29;101964.75;;;15.75;28.25
38630;BME280;24384;51.988;4.644;2023-03-15T13:33:08;101965.16;;;16.35;30.75
38630;BME280;24384;51.988;4.644;2023-03-15T13:35:44;101975.97;;;15.09;28.31
38630;BME280;24384;51.988;4.644;2023-03-15T13:38:27;101979.09;;;14.67;32.34
38630;BME280;24384;51.988;4.644;2023-03-15T13:40:53;101987.38;;;13.98;29.35
38630;BME280;24384;51.988;4.644;2023-03-15T13:43:19;101988.59;;;14.16;28.42
38630;BME280;24384;51.988;4.644;2023-03-15T13:45:44;101988.28;;;14.27;31.56
38630;BME280;24384;51.988;4.644;2023-03-15T13:48:10;101978.03;;;13.17;32.76
38630;BME280;24384;51.988;4.644;2023-03-15T13:50:37;101971.94;;;13.14;33.72
38630;BME280;24384;51.988;4.644;2023-03-15T13:53:02;101982.38;;;13.87;33.41
38630;BME280;24384;51.988;4.644;2023-03-15T13:55:30;101981.09;;;14.01;33.79
38630;BME280;24384;51.988;4.644;2023-03-15T13:57:56;101977.84;;;12.90;35.01